首页
METAR-TAF:

METAR-TAF

机场 :

Richard B. Russell Airport

罗马, 喬治亞, 美国

纬度: 34-20-52N, 经度: 085-09-40W, 海拔: 194米

当前天气观测

该预报发布于28分钟前的10:53 UTC
静风
温度 22°C
湿度 83%
气压 1015 hPa
能見度: 11.3公里
天空无云

METAR: KRMG 151053Z AUTO 00000KT 7SM CLR 22/19 A2998 RMK AO2 SLP140 T02170194

时间: 07:21 (11:21 UTC)


TAF: 丢失

超过4000个机场的气象观测和天气预报(METAR&TAF报告)。

可查询的气象台以黄色和红色小点在地图上表示。

将鼠标移到小点上方,可查看气象台名称。

然后点击查看天气观测和预报。

如需切换地图:点击带黑十字的绿色按钮放大地图;点击带横线的绿色按钮缩小地图;或者点击绿色箭头查看邻近地区的地图。


METAR-TAF: